Terminal Aerodrome Forecast
Issued by NWS Quad Cities IA IL

Home | Current Version | Previous Version | Text Only | Print | Product List | Glossary On
Versions: 1 2 3 4 5 6 7 8 9 10 11 12 13 14 15 16 17 18 19 20 21
000
FTUS43 KDVN 220300 AAA
TAFDBQ
TAF AMD
KDBQ 220357Z 2204/2224 33015G20KT P6SM SKC
     FM221500 36013KT P6SM SKC
     FM222200 35007KT P6SM SCT250=

USA.gov is the U.S. government's official web portal to all federal, state and local government web resources and services.